createdAt,value
2022-09-30T00:00:01.155Z,14.67
2022-09-30T00:02:34.171Z,14.67
2022-09-30T00:05:08.842Z,14.64
2022-09-30T00:07:42.594Z,14.62
2022-09-30T00:10:17.495Z,14.64
2022-09-30T00:12:53.114Z,14.64
2022-09-30T00:15:26.230Z,14.66
2022-09-30T00:17:59.604Z,14.68
2022-09-30T00:20:33.118Z,14.67
2022-09-30T00:23:06.698Z,14.68
2022-09-30T00:25:39.743Z,14.67
2022-09-30T00:28:13.872Z,14.69
2022-09-30T00:30:47.869Z,14.71
2022-09-30T00:33:20.784Z,14.70
2022-09-30T00:35:54.024Z,14.67
2022-09-30T00:38:27.405Z,14.63
2022-09-30T00:41:02.066Z,14.67
2022-09-30T00:43:51.873Z,14.63
2022-09-30T00:46:34.095Z,14.65
2022-09-30T00:49:13.444Z,14.68
2022-09-30T00:51:50.251Z,14.62
2022-09-30T00:54:27.233Z,14.62
2022-09-30T00:57:04.896Z,14.64
2022-09-30T00:59:43.828Z,14.58
2022-09-30T01:02:16.764Z,14.62
2022-09-30T01:04:49.632Z,14.58
2022-09-30T01:07:24.678Z,14.49
2022-09-30T01:09:59.189Z,14.48
2022-09-30T01:12:32.393Z,14.43
2022-09-30T01:15:08.432Z,14.43
2022-09-30T01:17:52.081Z,14.45
2022-09-30T01:20:50.457Z,14.43
2022-09-30T01:23:52.899Z,14.34
2022-09-30T01:26:43.768Z,14.34
2022-09-30T01:29:40.031Z,14.34
2022-09-30T01:32:25.396Z,14.31
2022-09-30T01:35:08.168Z,14.24
2022-09-30T01:37:49.336Z,14.24
2022-09-30T01:40:26.330Z,14.23
2022-09-30T01:43:12.451Z,14.26
2022-09-30T01:45:50.305Z,14.24
2022-09-30T01:48:29.811Z,14.23
2022-09-30T01:51:08.586Z,14.24
2022-09-30T01:53:45.378Z,14.19
2022-09-30T01:56:22.022Z,14.17
2022-09-30T01:59:00.647Z,14.14
2022-09-30T02:01:39.674Z,14.16
2022-09-30T02:04:19.725Z,14.13
2022-09-30T02:06:56.995Z,14.10
2022-09-30T02:09:36.017Z,14.09
2022-09-30T02:12:13.184Z,14.04
2022-09-30T02:14:50.519Z,14.06
2022-09-30T02:17:27.124Z,14.05
2022-09-30T02:20:07.087Z,13.98
2022-09-30T02:22:44.905Z,13.99
2022-09-30T02:25:24.124Z,13.94
2022-09-30T02:28:01.465Z,13.98
2022-09-30T02:30:36.777Z,13.90
2022-09-30T02:33:14.125Z,13.92
2022-09-30T02:35:51.576Z,13.92
2022-09-30T02:38:27.946Z,13.90
2022-09-30T02:41:06.498Z,13.91
2022-09-30T02:43:42.075Z,13.92
2022-09-30T02:46:27.622Z,13.89
2022-09-30T02:49:04.704Z,13.86
2022-09-30T02:51:51.069Z,13.83
2022-09-30T02:54:33.362Z,13.82
2022-09-30T02:57:17.879Z,13.79
2022-09-30T02:59:53.410Z,13.82
2022-09-30T03:02:26.305Z,13.76
2022-09-30T03:04:59.176Z,13.74
2022-09-30T03:07:34.864Z,13.70
2022-09-30T03:10:14.580Z,13.71
2022-09-30T03:13:02.988Z,13.73
2022-09-30T03:15:48.803Z,13.70
2022-09-30T03:18:36.968Z,13.69
2022-09-30T03:21:21.304Z,13.70
2022-09-30T03:24:22.158Z,13.72
2022-09-30T03:27:04.350Z,13.71
2022-09-30T03:29:47.595Z,13.67
2022-09-30T03:32:29.061Z,13.72
2022-09-30T03:35:09.658Z,13.70
2022-09-30T03:37:49.951Z,13.63
2022-09-30T03:40:30.840Z,13.65
2022-09-30T03:43:11.311Z,13.58
2022-09-30T03:45:49.345Z,13.62
2022-09-30T03:48:24.135Z,13.63
2022-09-30T03:51:00.436Z,13.67
2022-09-30T03:53:39.330Z,13.59
2022-09-30T03:56:14.097Z,13.58
2022-09-30T03:58:47.251Z,13.60
2022-09-30T04:01:22.186Z,13.58
2022-09-30T04:03:55.287Z,13.60
2022-09-30T04:06:27.913Z,13.53
2022-09-30T04:09:00.709Z,13.49
2022-09-30T04:11:34.915Z,13.50
2022-09-30T04:14:07.647Z,13.47
2022-09-30T04:16:40.536Z,13.46
2022-09-30T04:19:13.290Z,13.43
2022-09-30T04:21:46.218Z,13.41
2022-09-30T04:24:18.898Z,13.47
2022-09-30T04:26:53.099Z,13.50
2022-09-30T04:29:25.805Z,13.45
2022-09-30T04:31:58.711Z,13.39
2022-09-30T04:34:31.353Z,13.51
2022-09-30T04:37:08.571Z,13.46
2022-09-30T04:39:44.243Z,13.43
2022-09-30T04:42:18.413Z,13.42
2022-09-30T04:44:51.141Z,13.34
2022-09-30T04:47:25.274Z,13.35
2022-09-30T04:49:58.263Z,13.35
2022-09-30T04:52:30.916Z,13.42
2022-09-30T04:55:03.775Z,13.40
2022-09-30T04:57:38.087Z,13.37
2022-09-30T05:00:12.445Z,13.38
2022-09-30T05:02:45.749Z,13.38
2022-09-30T05:05:19.077Z,13.39
2022-09-30T05:07:52.020Z,13.33
2022-09-30T05:10:25.144Z,13.35
2022-09-30T05:12:59.720Z,13.34
2022-09-30T05:15:32.699Z,13.36
2022-09-30T05:18:06.061Z,13.35
2022-09-30T05:20:38.777Z,13.31
2022-09-30T05:23:11.782Z,13.37
2022-09-30T05:25:44.456Z,13.40
2022-09-30T05:28:19.241Z,13.30
2022-09-30T05:31:06.728Z,13.34
2022-09-30T05:33:57.747Z,13.29
2022-09-30T05:36:31.149Z,13.33
2022-09-30T05:39:04.817Z,13.33
2022-09-30T05:41:48.212Z,13.36
2022-09-30T05:44:47.835Z,13.33
2022-09-30T05:47:22.012Z,13.30
2022-09-30T05:49:57.852Z,13.40
2022-09-30T05:55:27.459Z,13.31
2022-09-30T05:58:00.771Z,13.31
2022-09-30T06:14:37.895Z,13.34
2022-09-30T06:17:19.641Z,13.30
2022-09-30T06:19:57.052Z,13.27
2022-09-30T06:22:31.052Z,13.32
2022-09-30T06:25:06.784Z,13.28
2022-09-30T06:27:47.247Z,13.29
2022-09-30T06:30:21.840Z,13.33
2022-09-30T06:32:57.720Z,13.36
2022-09-30T06:35:30.592Z,13.33
2022-09-30T06:38:03.824Z,13.34
2022-09-30T06:40:36.914Z,13.34
2022-09-30T06:43:10.130Z,13.37
2022-09-30T06:45:48.891Z,13.34
2022-09-30T06:48:34.998Z,13.36
2022-09-30T06:51:13.464Z,13.40
2022-09-30T06:53:50.040Z,13.44
2022-09-30T06:56:26.283Z,13.47
2022-09-30T06:58:59.264Z,13.50
2022-09-30T07:01:33.883Z,13.53
2022-09-30T07:04:09.763Z,13.58
2022-09-30T07:06:43.683Z,13.59
2022-09-30T07:09:20.521Z,13.60
2022-09-30T07:11:53.666Z,13.67
2022-09-30T07:14:27.093Z,13.72
2022-09-30T07:17:12.260Z,13.69
2022-09-30T07:19:45.956Z,13.72
2022-09-30T07:22:32.281Z,13.95
2022-09-30T07:25:07.258Z,14.28
2022-09-30T07:27:40.336Z,14.19
2022-09-30T07:30:22.759Z,14.29
2022-09-30T07:32:59.191Z,14.60
2022-09-30T07:35:32.189Z,14.52
2022-09-30T07:38:04.939Z,14.58
2022-09-30T07:40:37.787Z,14.63
2022-09-30T07:43:10.879Z,14.76
2022-09-30T07:45:43.731Z,14.91
2022-09-30T07:48:36.037Z,14.99
2022-09-30T07:51:09.987Z,15.07
2022-09-30T07:53:43.969Z,15.17
2022-09-30T07:56:18.267Z,15.27
2022-09-30T07:58:55.300Z,15.28
2022-09-30T08:01:31.476Z,15.39
2022-09-30T08:04:08.601Z,15.41
2022-09-30T08:06:45.264Z,15.68
2022-09-30T08:09:21.193Z,15.82
2022-09-30T08:11:54.378Z,15.86
2022-09-30T08:14:28.224Z,15.94
2022-09-30T08:17:01.599Z,15.97
2022-09-30T08:19:37.142Z,16.12
2022-09-30T08:22:10.668Z,16.13
2022-09-30T08:24:44.313Z,16.26
2022-09-30T08:27:17.425Z,16.23
2022-09-30T08:29:55.049Z,16.40
2022-09-30T08:32:31.354Z,16.56
2022-09-30T08:35:07.498Z,16.75
2022-09-30T08:37:40.496Z,16.73
2022-09-30T08:40:22.192Z,16.78
2022-09-30T08:43:12.684Z,17.11
2022-09-30T08:45:57.434Z,17.30
2022-09-30T08:48:45.692Z,17.44
2022-09-30T08:51:30.544Z,17.54
2022-09-30T08:54:11.360Z,17.72
2022-09-30T08:56:46.749Z,17.79
2022-09-30T08:59:30.464Z,17.94
2022-09-30T09:02:18.714Z,18.04
2022-09-30T09:04:53.828Z,18.09
2022-09-30T09:07:41.894Z,18.24
2022-09-30T09:10:28.460Z,18.34
2022-09-30T09:13:12.902Z,18.43
2022-09-30T09:15:58.681Z,18.46
2022-09-30T09:18:47.782Z,18.56
2022-09-30T09:21:31.890Z,18.69
2022-09-30T09:24:13.639Z,18.79
2022-09-30T09:26:48.512Z,18.83
2022-09-30T09:29:35.509Z,18.97
2022-09-30T09:32:14.864Z,19.01
2022-09-30T09:34:52.873Z,19.19
2022-09-30T09:37:55.838Z,19.33
2022-09-30T09:40:39.421Z,19.51
2022-09-30T09:43:24.937Z,19.54
2022-09-30T09:46:10.972Z,19.78
2022-09-30T09:48:44.827Z,19.92
2022-09-30T09:51:25.849Z,20.03
2022-09-30T09:54:02.647Z,20.18
2022-09-30T09:56:37.895Z,20.31
2022-09-30T09:59:15.979Z,20.47
2022-09-30T10:01:53.887Z,20.41
2022-09-30T10:04:29.576Z,20.50
2022-09-30T10:07:13.809Z,20.66
2022-09-30T10:09:47.158Z,20.72
2022-09-30T10:12:30.849Z,20.98
2022-09-30T10:15:20.195Z,21.28
2022-09-30T10:17:58.257Z,21.22
2022-09-30T10:20:33.179Z,21.18
2022-09-30T10:23:20.848Z,21.31
2022-09-30T10:26:03.749Z,20.91
2022-09-30T10:28:48.775Z,21.11
2022-09-30T10:31:25.362Z,20.83
2022-09-30T10:34:04.259Z,21.04
2022-09-30T10:36:40.305Z,21.35
2022-09-30T10:39:25.077Z,20.99
2022-09-30T10:42:03.723Z,21.47
2022-09-30T10:44:45.993Z,21.54
2022-09-30T10:47:21.596Z,21.64
2022-09-30T10:49:57.543Z,21.47
2022-09-30T10:52:33.969Z,21.74
2022-09-30T10:55:13.954Z,21.56
2022-09-30T10:57:52.774Z,21.76
2022-09-30T11:00:27.341Z,21.98
2022-09-30T11:03:07.039Z,22.16
2022-09-30T11:05:42.505Z,22.11
2022-09-30T11:08:20.872Z,22.18
2022-09-30T11:11:00.476Z,22.11
2022-09-30T11:13:41.052Z,22.28
2022-09-30T11:16:19.983Z,22.41
2022-09-30T11:18:59.148Z,22.66
2022-09-30T11:21:38.562Z,22.84
2022-09-30T11:24:25.269Z,22.87
2022-09-30T11:27:06.223Z,22.77
2022-09-30T11:30:00.030Z,22.97
2022-09-30T11:32:46.215Z,22.71
2022-09-30T11:35:30.310Z,22.84
2022-09-30T11:38:11.963Z,23.11
2022-09-30T11:40:54.576Z,23.18
2022-09-30T11:43:36.376Z,23.24
2022-09-30T11:46:23.279Z,23.25
2022-09-30T11:49:26.141Z,23.25
2022-09-30T11:52:09.758Z,23.37
2022-09-30T11:55:00.904Z,23.36
2022-09-30T11:57:38.855Z,23.31
2022-09-30T12:00:17.297Z,23.32
2022-09-30T12:02:53.643Z,23.35
2022-09-30T12:05:33.094Z,23.35
2022-09-30T12:08:13.837Z,23.40
2022-09-30T12:10:52.995Z,23.31
2022-09-30T12:13:30.638Z,23.27
2022-09-30T12:16:07.737Z,23.19
2022-09-30T12:18:43.947Z,23.17
2022-09-30T12:21:23.408Z,23.13
2022-09-30T12:24:00.557Z,23.18
2022-09-30T12:26:35.036Z,23.18
2022-09-30T12:29:32.746Z,23.15
2022-09-30T12:32:42.333Z,23.24
2022-09-30T12:35:33.176Z,23.17
2022-09-30T12:38:25.866Z,23.23
2022-09-30T12:41:07.555Z,23.15
2022-09-30T12:44:02.736Z,23.36
2022-09-30T12:46:53.975Z,23.38
2022-09-30T12:49:30.708Z,23.29
2022-09-30T12:52:08.092Z,23.35
2022-09-30T12:54:45.399Z,23.36
2022-09-30T12:57:22.610Z,23.29
2022-09-30T12:59:57.882Z,23.08
2022-09-30T13:02:36.516Z,23.05
2022-09-30T13:05:39.842Z,23.14
2022-09-30T13:08:32.568Z,23.21
2022-09-30T13:11:07.970Z,23.17
2022-09-30T13:14:00.847Z,23.18
2022-09-30T13:17:02.505Z,23.15
2022-09-30T13:19:37.433Z,23.22
2022-09-30T13:22:52.964Z,23.18
2022-09-30T13:25:25.813Z,23.22
2022-09-30T13:28:29.912Z,23.16
2022-09-30T13:31:15.386Z,23.19
2022-09-30T13:34:06.649Z,23.22
2022-09-30T13:36:42.922Z,23.23
2022-09-30T13:39:22.602Z,23.23
2022-09-30T13:42:08.294Z,23.21
2022-09-30T13:45:03.078Z,23.19
2022-09-30T13:47:41.188Z,23.24
2022-09-30T13:50:36.461Z,23.19
2022-09-30T13:53:20.434Z,23.16
2022-09-30T13:55:55.526Z,23.16
2022-09-30T13:58:54.503Z,23.14
2022-09-30T14:01:44.267Z,23.09
2022-09-30T14:04:40.951Z,23.05
2022-09-30T14:07:22.746Z,23.03
2022-09-30T14:10:09.847Z,23.05
2022-09-30T14:13:21.227Z,23.00
2022-09-30T14:16:13.920Z,22.86
2022-09-30T14:19:09.965Z,22.82
2022-09-30T14:21:45.986Z,22.64
2022-09-30T14:24:25.986Z,22.68
2022-09-30T14:27:11.158Z,22.67
2022-09-30T14:29:56.205Z,22.66
2022-09-30T14:32:31.746Z,22.62
2022-09-30T14:35:09.347Z,22.55
2022-09-30T14:37:46.697Z,22.43
2022-09-30T14:40:21.867Z,22.42
2022-09-30T14:42:59.270Z,22.33
2022-09-30T14:45:34.640Z,22.30
2022-09-30T14:48:11.663Z,22.38
2022-09-30T14:50:49.195Z,22.25
2022-09-30T14:53:30.850Z,22.17
2022-09-30T14:56:20.842Z,22.00
2022-09-30T14:58:57.181Z,21.78
2022-09-30T15:01:34.442Z,21.69
2022-09-30T15:04:14.141Z,21.59
2022-09-30T15:06:50.899Z,21.66
2022-09-30T15:09:26.424Z,21.70
2022-09-30T15:12:05.525Z,21.73
2022-09-30T15:14:48.066Z,21.68
2022-09-30T15:17:22.268Z,21.64
2022-09-30T15:19:56.417Z,21.64
2022-09-30T15:22:31.946Z,21.63
2022-09-30T15:25:05.470Z,21.55
2022-09-30T15:27:39.700Z,21.49
2022-09-30T15:30:25.154Z,21.45
2022-09-30T15:33:03.284Z,21.36
2022-09-30T15:35:38.264Z,21.42
2022-09-30T15:38:22.382Z,21.31
2022-09-30T15:41:00.150Z,21.33
2022-09-30T15:43:39.707Z,21.23
2022-09-30T15:46:35.379Z,21.21
2022-09-30T15:49:35.247Z,21.18
2022-09-30T15:52:30.635Z,21.09
2022-09-30T15:55:42.334Z,21.11
2022-09-30T15:58:33.802Z,21.00
2022-09-30T16:01:28.866Z,20.99
2022-09-30T16:04:05.430Z,20.95
2022-09-30T16:06:44.800Z,20.88
2022-09-30T16:09:24.668Z,20.83
2022-09-30T16:12:05.289Z,20.75
2022-09-30T16:14:45.110Z,20.72
2022-09-30T16:17:22.552Z,20.66
2022-09-30T16:19:58.477Z,20.64
2022-09-30T16:22:51.555Z,20.53
2022-09-30T16:25:28.195Z,20.50
2022-09-30T16:28:11.369Z,20.50
2022-09-30T16:30:45.231Z,20.49
2022-09-30T16:33:18.652Z,20.40
2022-09-30T16:35:51.344Z,20.34
2022-09-30T16:38:24.096Z,20.30
2022-09-30T16:41:00.483Z,20.22
2022-09-30T16:43:34.655Z,20.18
2022-09-30T16:46:08.267Z,20.18
2022-09-30T16:48:40.956Z,20.13
2022-09-30T16:51:15.475Z,20.01
2022-09-30T16:53:49.078Z,20.01
2022-09-30T16:56:21.847Z,20.06
2022-09-30T16:58:56.026Z,20.01
2022-09-30T17:01:29.617Z,19.94
2022-09-30T17:04:02.796Z,19.91
2022-09-30T17:06:37.786Z,19.92
2022-09-30T17:09:10.616Z,19.82
2022-09-30T17:11:43.425Z,19.74
2022-09-30T17:14:17.782Z,19.81
2022-09-30T17:16:50.627Z,19.70
2022-09-30T17:19:23.792Z,19.71
2022-09-30T17:21:56.660Z,19.75
2022-09-30T17:24:29.745Z,19.74
2022-09-30T17:27:02.549Z,19.70
2022-09-30T17:29:41.733Z,19.41
2022-09-30T17:32:15.083Z,19.33
2022-09-30T17:34:47.985Z,19.39
2022-09-30T17:37:21.078Z,19.23
2022-09-30T17:39:53.840Z,19.36
2022-09-30T17:42:43.591Z,19.31
2022-09-30T17:45:17.769Z,19.28
2022-09-30T17:47:50.568Z,19.13
2022-09-30T17:50:23.326Z,19.12
2022-09-30T17:52:56.547Z,18.98
2022-09-30T17:55:30.241Z,19.07
2022-09-30T17:58:04.141Z,19.04
2022-09-30T18:00:39.191Z,18.96
2022-09-30T18:03:12.178Z,18.89
2022-09-30T18:05:45.553Z,18.96
2022-09-30T18:08:19.289Z,18.90
2022-09-30T18:10:53.110Z,18.92
2022-09-30T18:13:26.766Z,18.90
2022-09-30T18:16:06.268Z,18.76
2022-09-30T18:18:39.184Z,18.67
2022-09-30T18:21:13.076Z,18.72
2022-09-30T18:23:45.994Z,18.69
2022-09-30T18:26:19.630Z,18.62
2022-09-30T18:28:53.461Z,18.66
2022-09-30T18:31:38.185Z,18.64
2022-09-30T18:34:13.536Z,18.60
2022-09-30T18:36:46.336Z,18.54
2022-09-30T18:39:19.185Z,18.62
2022-09-30T18:41:51.885Z,18.56
2022-09-30T18:44:27.301Z,18.54
2022-09-30T18:47:01.652Z,18.53
2022-09-30T18:49:34.430Z,18.58
2022-09-30T18:52:08.665Z,18.47
2022-09-30T18:54:41.498Z,18.45
2022-09-30T18:57:14.249Z,18.47
2022-09-30T18:59:47.552Z,18.39
2022-09-30T19:02:21.767Z,18.50
2022-09-30T19:04:59.908Z,18.52
2022-09-30T19:07:35.093Z,18.34
2022-09-30T19:10:09.884Z,18.44
2022-09-30T19:12:44.639Z,18.34
2022-09-30T19:15:17.697Z,18.36
2022-09-30T19:17:53.664Z,18.36
2022-09-30T19:20:27.112Z,18.29
2022-09-30T19:23:00.042Z,18.23
2022-09-30T19:25:32.767Z,18.34
2022-09-30T19:28:06.662Z,18.20
2022-09-30T19:30:42.019Z,18.18
2022-09-30T19:33:17.609Z,18.25
2022-09-30T19:35:54.088Z,18.25
2022-09-30T19:38:37.807Z,18.16
2022-09-30T19:41:10.983Z,18.12
2022-09-30T19:43:45.435Z,18.10
2022-09-30T19:46:20.609Z,18.08
2022-09-30T19:48:55.520Z,18.07
2022-09-30T19:51:29.686Z,18.09
2022-09-30T19:54:07.115Z,18.11
2022-09-30T19:56:40.351Z,18.15
2022-09-30T19:59:13.062Z,17.99
2022-09-30T20:01:47.137Z,17.93
2022-09-30T20:04:22.420Z,18.00
2022-09-30T20:06:55.164Z,17.98
2022-09-30T20:09:27.963Z,17.98
2022-09-30T20:12:00.958Z,17.96
2022-09-30T20:14:51.032Z,17.87
2022-09-30T20:17:23.906Z,17.87
2022-09-30T20:20:15.850Z,17.76
2022-09-30T20:22:48.620Z,17.83
2022-09-30T20:25:21.506Z,17.77
2022-09-30T20:27:54.322Z,17.77
2022-09-30T20:30:30.161Z,17.75
2022-09-30T20:33:03.058Z,17.76
2022-09-30T20:35:38.071Z,17.73
2022-09-30T20:38:13.668Z,17.63
2022-09-30T20:40:46.381Z,17.68
2022-09-30T20:43:19.053Z,17.68
2022-09-30T20:45:55.468Z,17.63
2022-09-30T20:48:32.604Z,17.61
2022-09-30T20:51:09.082Z,17.53
2022-09-30T20:53:46.841Z,17.50
2022-09-30T20:56:23.020Z,17.51
2022-09-30T20:58:55.978Z,17.54
2022-09-30T21:01:28.905Z,17.50
2022-09-30T21:04:02.859Z,17.49
2022-09-30T21:06:37.153Z,17.49
2022-09-30T21:09:12.711Z,17.39
2022-09-30T21:11:45.662Z,17.44
2022-09-30T21:14:19.395Z,17.42
2022-09-30T21:16:52.256Z,17.43
2022-09-30T21:19:25.222Z,17.32
2022-09-30T21:21:59.725Z,17.16
2022-09-30T21:24:32.385Z,17.28
2022-09-30T21:27:06.091Z,17.20
2022-09-30T21:29:39.850Z,17.00
2022-09-30T21:32:13.099Z,17.21
2022-09-30T21:34:46.344Z,17.08
2022-09-30T21:37:20.425Z,17.10
2022-09-30T21:39:53.149Z,17.24
2022-09-30T21:42:26.310Z,17.32
2022-09-30T21:44:58.859Z,17.09
2022-09-30T21:47:31.631Z,17.01
2022-09-30T21:50:06.518Z,17.07
2022-09-30T21:52:40.576Z,17.07
2022-09-30T21:55:13.713Z,17.09
2022-09-30T21:57:47.426Z,17.01
2022-09-30T22:00:21.314Z,17.06
2022-09-30T22:02:54.096Z,17.04
2022-09-30T22:05:26.841Z,17.01
2022-09-30T22:08:01.955Z,16.79
2022-09-30T22:10:34.729Z,16.98
2022-09-30T22:13:07.430Z,16.87
2022-09-30T22:15:40.320Z,16.97
2022-09-30T22:18:16.577Z,16.92
2022-09-30T22:20:49.286Z,16.99
2022-09-30T22:23:23.315Z,16.88
2022-09-30T22:25:57.435Z,16.99
2022-09-30T22:28:30.294Z,16.73
2022-09-30T22:31:11.311Z,16.86
2022-09-30T22:34:02.906Z,16.75
2022-09-30T22:36:53.491Z,16.72
2022-09-30T22:39:28.289Z,16.75
2022-09-30T22:42:01.640Z,16.74
2022-09-30T22:44:36.156Z,16.73
2022-09-30T22:47:11.845Z,16.72
2022-09-30T22:49:44.802Z,16.75
2022-09-30T22:52:17.537Z,16.65
2022-09-30T22:54:51.727Z,16.64
2022-09-30T22:57:24.920Z,16.75
2022-09-30T22:59:59.001Z,16.69
2022-09-30T23:02:31.851Z,16.74
2022-09-30T23:05:05.258Z,16.69
2022-09-30T23:07:38.153Z,16.69
2022-09-30T23:10:12.681Z,16.66
2022-09-30T23:12:46.086Z,16.51
2022-09-30T23:15:18.859Z,16.57
2022-09-30T23:17:51.806Z,16.62
2022-09-30T23:20:24.832Z,16.59
2022-09-30T23:22:57.529Z,16.54
2022-09-30T23:25:31.759Z,16.57
2022-09-30T23:28:04.522Z,16.62
2022-09-30T23:30:38.258Z,16.64
2022-09-30T23:33:11.954Z,16.60
2022-09-30T23:35:48.018Z,16.55
2022-09-30T23:38:20.856Z,16.48
2022-09-30T23:40:58.960Z,16.43
2022-09-30T23:43:34.128Z,16.50
2022-09-30T23:46:08.509Z,16.48
2022-09-30T23:48:41.580Z,16.47
2022-09-30T23:51:14.658Z,16.38
2022-09-30T23:53:47.858Z,16.45
2022-09-30T23:56:22.034Z,16.40
2022-09-30T23:58:54.870Z,16.38
